createdAt,value
2023-04-24T00:00:19.390Z,4.45
2023-04-24T00:02:49.971Z,6.70
2023-04-24T00:05:18.474Z,4.22
2023-04-24T00:07:46.688Z,4.55
2023-04-24T00:10:14.361Z,3.65
2023-04-24T00:12:41.713Z,10.13
2023-04-24T00:15:10.125Z,6.78
2023-04-24T00:17:37.765Z,5.15
2023-04-24T00:20:07.942Z,5.30
2023-04-24T00:22:35.316Z,5.25
2023-04-24T00:25:02.637Z,6.10
2023-04-24T00:27:29.986Z,5.38
2023-04-24T00:29:57.312Z,7.05
2023-04-24T00:32:24.766Z,5.82
2023-04-24T00:34:52.144Z,6.43
2023-04-24T00:37:19.468Z,8.68
2023-04-24T00:39:46.969Z,10.60
2023-04-24T00:42:14.321Z,12.68
2023-04-24T00:44:41.792Z,12.05
2023-04-24T00:47:09.353Z,12.43
2023-04-24T00:49:37.253Z,11.70
2023-04-24T00:52:08.596Z,13.40
2023-04-24T00:54:36.727Z,12.90
2023-04-24T00:57:07.614Z,10.88
2023-04-24T00:59:35.049Z,11.88
2023-04-24T01:02:02.364Z,11.20
2023-04-24T01:04:30.284Z,12.20
2023-04-24T01:06:58.481Z,16.52
2023-04-24T01:09:26.618Z,12.45
2023-04-24T01:11:54.111Z,9.48
2023-04-24T01:14:22.041Z,9.85
2023-04-24T01:16:49.434Z,8.73
2023-04-24T01:19:17.044Z,8.10
2023-04-24T01:21:45.461Z,7.75
2023-04-24T01:24:12.924Z,7.90
2023-04-24T01:26:40.310Z,10.82
2023-04-24T01:29:07.773Z,10.32
2023-04-24T01:31:35.458Z,10.43
2023-04-24T01:34:05.834Z,11.65
2023-04-24T01:36:33.802Z,10.73
2023-04-24T01:39:01.570Z,14.30
2023-04-24T01:41:29.441Z,12.55
2023-04-24T01:43:57.733Z,14.23
2023-04-24T01:46:25.764Z,12.95
2023-04-24T01:48:53.705Z,14.55
2023-04-24T01:51:21.091Z,19.95
2023-04-24T01:53:48.410Z,17.42
2023-04-24T01:56:16.267Z,18.85
2023-04-24T01:58:44.016Z,17.65
2023-04-24T02:01:16.353Z,17.42
2023-04-24T02:03:44.104Z,19.00
2023-04-24T02:06:11.522Z,19.92
2023-04-24T02:08:38.884Z,22.85
2023-04-24T02:11:06.943Z,23.05
2023-04-24T02:13:34.258Z,21.40
2023-04-24T02:16:01.731Z,22.63
2023-04-24T02:18:29.339Z,25.40
2023-04-24T02:20:56.756Z,25.60
2023-04-24T02:23:24.237Z,28.08
2023-04-24T02:25:51.746Z,22.50
2023-04-24T02:28:19.508Z,24.48
2023-04-24T02:30:47.060Z,23.10
2023-04-24T02:33:14.390Z,24.02
2023-04-24T02:35:41.743Z,25.45
2023-04-24T02:38:09.139Z,21.58
2023-04-24T02:40:36.522Z,25.40
2023-04-24T02:43:04.287Z,23.90
2023-04-24T02:45:31.672Z,28.67
2023-04-24T02:47:59.066Z,29.48
2023-04-24T02:50:26.451Z,24.75
2023-04-24T02:52:53.857Z,24.50
2023-04-24T02:55:21.294Z,19.17
2023-04-24T02:57:48.848Z,24.10
2023-04-24T03:00:16.495Z,18.88
2023-04-24T03:02:44.069Z,21.48
2023-04-24T03:05:12.951Z,23.17
2023-04-24T03:07:40.370Z,22.77
2023-04-24T03:10:08.529Z,19.58
2023-04-24T03:12:35.977Z,17.02
2023-04-24T03:15:03.511Z,16.48
2023-04-24T03:17:31.132Z,15.73
2023-04-24T03:19:58.554Z,12.57
2023-04-24T03:22:25.923Z,13.30
2023-04-24T03:24:53.344Z,10.90
2023-04-24T03:27:20.940Z,9.60
2023-04-24T03:29:48.429Z,7.13
2023-04-24T03:32:15.835Z,8.70
2023-04-24T03:34:43.195Z,8.75
2023-04-24T03:37:10.508Z,7.18
2023-04-24T03:39:37.828Z,8.52
2023-04-24T03:42:05.339Z,7.50
2023-04-24T03:44:32.658Z,9.60
2023-04-24T03:47:00.157Z,9.60
2023-04-24T03:49:27.838Z,8.32
2023-04-24T03:51:55.352Z,9.32
2023-04-24T03:54:22.733Z,7.68
2023-04-24T03:56:50.045Z,13.90
2023-04-24T03:59:17.372Z,9.32
2023-04-24T04:01:44.824Z,4.75
2023-04-24T04:04:12.496Z,5.88
2023-04-24T04:06:39.966Z,9.85
2023-04-24T04:09:08.171Z,6.57
2023-04-24T04:11:36.412Z,5.97
2023-04-24T04:14:03.872Z,5.60
2023-04-24T04:16:31.263Z,9.57
2023-04-24T04:18:58.739Z,6.72
2023-04-24T04:21:27.740Z,10.80
2023-04-24T04:23:55.139Z,10.45
2023-04-24T04:26:26.472Z,14.35
2023-04-24T04:28:54.258Z,13.68
2023-04-24T04:31:22.210Z,13.23
2023-04-24T04:33:49.604Z,14.57
2023-04-24T04:36:18.313Z,14.73
2023-04-24T04:38:45.814Z,17.42
2023-04-24T04:41:13.172Z,14.25
2023-04-24T04:43:40.751Z,13.18
2023-04-24T04:46:09.416Z,13.90
2023-04-24T04:48:36.873Z,10.02
2023-04-24T04:51:04.271Z,11.32
2023-04-24T04:53:31.699Z,8.82
2023-04-24T04:56:00.548Z,8.25
2023-04-24T04:58:27.884Z,11.73
2023-04-24T05:00:55.223Z,13.45
2023-04-24T05:03:22.899Z,13.00
2023-04-24T05:05:50.457Z,12.70
2023-04-24T05:08:26.422Z,8.93
2023-04-24T05:10:56.541Z,9.52
2023-04-24T05:15:54.351Z,7.68
2023-04-24T05:18:22.118Z,5.97
2023-04-24T05:20:49.506Z,8.32
2023-04-24T05:23:16.849Z,8.57
2023-04-24T05:25:44.298Z,9.45
2023-04-24T05:28:11.660Z,13.75
2023-04-24T05:30:39.146Z,11.90
2023-04-24T05:33:06.868Z,15.60
2023-04-24T05:35:34.287Z,17.42
2023-04-24T05:38:01.656Z,20.58
2023-04-24T05:40:29.005Z,19.45
2023-04-24T05:42:56.508Z,21.95
2023-04-24T05:45:23.822Z,20.15
2023-04-24T05:47:53.445Z,25.98
2023-04-24T05:50:20.908Z,26.48
2023-04-24T05:52:48.257Z,23.00
2023-04-24T05:55:18.399Z,28.23
2023-04-24T05:57:45.772Z,32.35
2023-04-24T06:00:14.057Z,24.15
2023-04-24T06:05:09.671Z,27.33
2023-04-24T06:07:37.289Z,32.35
2023-04-24T06:10:04.987Z,34.20
2023-04-24T06:12:32.363Z,28.38
2023-04-24T06:14:59.739Z,35.45
2023-04-24T06:17:27.123Z,34.58
2023-04-24T06:19:54.787Z,33.67
2023-04-24T06:22:22.108Z,33.45
2023-04-24T06:24:49.713Z,35.05
2023-04-24T06:27:17.046Z,35.78
2023-04-24T06:29:44.673Z,34.47
2023-04-24T06:32:12.177Z,32.47
2023-04-24T06:34:39.706Z,37.33
2023-04-24T06:37:07.588Z,28.48
2023-04-24T06:39:34.915Z,33.67
2023-04-24T06:42:02.270Z,33.45
2023-04-24T06:44:29.612Z,32.35
2023-04-24T06:46:56.984Z,32.67
2023-04-24T06:49:24.397Z,35.50
2023-04-24T06:51:51.741Z,37.95
2023-04-24T06:54:19.161Z,33.08
2023-04-24T06:56:48.831Z,34.05
2023-04-24T06:59:16.514Z,42.15
2023-04-24T07:01:44.161Z,33.40
2023-04-24T07:04:13.197Z,38.38
2023-04-24T07:06:40.846Z,33.58
2023-04-24T07:09:10.066Z,38.60
2023-04-24T07:11:39.468Z,40.30
2023-04-24T07:14:06.854Z,39.83
2023-04-24T07:16:34.278Z,38.47
2023-04-24T07:19:01.683Z,33.15
2023-04-24T07:21:29.126Z,38.53
2023-04-24T07:23:56.608Z,30.85
2023-04-24T07:26:24.007Z,42.50
2023-04-24T07:28:51.534Z,31.60
2023-04-24T07:31:18.878Z,27.30
2023-04-24T07:33:48.663Z,32.42
2023-04-24T07:36:19.839Z,28.83
2023-04-24T07:38:47.814Z,39.38
2023-04-24T07:41:15.924Z,28.65
2023-04-24T07:43:43.540Z,38.85
2023-04-24T07:46:13.585Z,34.60
2023-04-24T07:48:41.002Z,30.63
2023-04-24T07:51:11.101Z,27.98
2023-04-24T07:53:38.520Z,32.58
2023-04-24T07:56:06.235Z,34.08
2023-04-24T07:58:33.684Z,25.77
2023-04-24T08:01:01.048Z,24.48
2023-04-24T08:03:28.672Z,29.73
2023-04-24T08:05:56.373Z,32.00
2023-04-24T08:08:24.226Z,28.55
2023-04-24T08:10:52.104Z,29.13
2023-04-24T08:13:19.525Z,27.45
2023-04-24T08:15:47.157Z,22.05
2023-04-24T08:18:16.684Z,22.08
2023-04-24T08:20:44.199Z,19.65
2023-04-24T08:23:11.563Z,18.48
2023-04-24T08:25:38.880Z,24.27
2023-04-24T08:28:07.912Z,14.52
2023-04-24T08:30:35.335Z,24.15
2023-04-24T08:33:02.843Z,24.77
2023-04-24T08:35:30.321Z,18.42
2023-04-24T08:37:57.669Z,16.02
2023-04-24T08:40:31.287Z,15.50
2023-04-24T08:42:58.705Z,19.85
2023-04-24T08:45:27.099Z,19.40
2023-04-24T08:47:55.883Z,19.13
2023-04-24T08:50:24.335Z,13.38
2023-04-24T08:52:57.114Z,15.45
2023-04-24T08:55:25.979Z,15.90
2023-04-24T08:57:55.141Z,16.20
2023-04-24T09:00:23.022Z,16.42
2023-04-24T09:02:54.410Z,11.40
2023-04-24T09:05:23.158Z,15.30
2023-04-24T09:07:57.653Z,11.65
2023-04-24T09:10:26.070Z,11.30
2023-04-24T09:12:53.997Z,15.02
2023-04-24T09:15:21.833Z,15.38
2023-04-24T09:17:49.598Z,9.32
2023-04-24T09:20:17.087Z,11.43
2023-04-24T09:22:44.806Z,12.43
2023-04-24T09:25:13.747Z,8.10
2023-04-24T09:27:46.072Z,7.68
2023-04-24T09:30:14.014Z,9.18
2023-04-24T09:32:42.724Z,14.65
2023-04-24T09:35:14.580Z,12.20
2023-04-24T09:37:50.899Z,9.15
2023-04-24T09:40:20.885Z,6.45
2023-04-24T09:42:58.978Z,8.45
2023-04-24T09:45:39.975Z,7.43
2023-04-24T09:48:12.718Z,7.05
2023-04-24T09:50:40.066Z,8.10
2023-04-24T09:53:10.020Z,7.65
2023-04-24T09:55:43.433Z,6.97
2023-04-24T09:58:17.088Z,8.15
2023-04-24T10:00:44.668Z,9.13
2023-04-24T10:03:12.394Z,6.47
2023-04-24T10:05:40.330Z,8.85
2023-04-24T10:08:09.549Z,10.10
2023-04-24T10:10:42.211Z,5.93
2023-04-24T10:13:11.631Z,6.22
2023-04-24T10:15:39.935Z,10.00
2023-04-24T10:18:07.898Z,4.68
2023-04-24T10:20:37.495Z,9.95
2023-04-24T10:23:06.688Z,8.73
2023-04-24T10:25:36.425Z,6.13
2023-04-24T10:28:04.988Z,8.52
2023-04-24T10:30:37.361Z,6.85
2023-04-24T10:33:06.811Z,7.93
2023-04-24T10:35:40.613Z,9.05
2023-04-24T10:38:13.592Z,5.93
2023-04-24T10:40:41.258Z,9.23
2023-04-24T10:43:11.433Z,8.57
2023-04-24T10:45:39.653Z,8.13
2023-04-24T10:48:12.347Z,11.25
2023-04-24T10:50:49.459Z,11.27
2023-04-24T10:53:20.985Z,11.88
2023-04-24T10:55:52.932Z,9.65
2023-04-24T10:58:24.434Z,7.97
2023-04-24T11:00:59.764Z,7.22
2023-04-24T11:03:30.363Z,7.65
2023-04-24T11:06:05.004Z,9.90
2023-04-24T11:08:40.339Z,11.48
2023-04-24T11:11:19.374Z,15.85
2023-04-24T11:13:55.743Z,11.57
2023-04-24T11:16:27.743Z,13.00
2023-04-24T11:19:05.127Z,8.80
2023-04-24T11:21:49.113Z,10.43
2023-04-24T11:24:48.076Z,10.45
2023-04-24T11:27:19.021Z,10.40
2023-04-24T11:29:57.599Z,6.22
2023-04-24T11:32:29.015Z,6.90
2023-04-24T11:34:57.737Z,4.53
2023-04-24T11:37:27.843Z,9.20
2023-04-24T11:39:57.460Z,10.45
2023-04-24T11:42:26.535Z,10.27
2023-04-24T11:44:56.677Z,10.05
2023-04-24T11:47:35.070Z,9.98
2023-04-24T11:50:03.493Z,8.98
2023-04-24T11:52:31.881Z,8.88
2023-04-24T11:55:00.636Z,10.90
2023-04-24T11:57:34.617Z,7.93
2023-04-24T12:00:04.606Z,8.05
2023-04-24T12:02:33.165Z,11.98
2023-04-24T12:05:00.788Z,6.22
2023-04-24T12:07:28.593Z,5.13
2023-04-24T12:10:00.834Z,9.90
2023-04-24T12:12:31.913Z,10.15
2023-04-24T12:15:00.622Z,6.95
2023-04-24T12:17:33.013Z,8.98
2023-04-24T12:20:08.515Z,11.50
2023-04-24T12:22:57.978Z,10.40
2023-04-24T12:25:27.119Z,10.93
2023-04-24T12:28:12.115Z,9.45
2023-04-24T12:30:42.616Z,8.82
2023-04-24T12:33:10.109Z,13.23
2023-04-24T12:35:37.551Z,10.40
2023-04-24T12:38:18.965Z,8.88
2023-04-24T12:40:46.537Z,7.82
2023-04-24T12:43:18.901Z,7.75
2023-04-24T12:45:47.120Z,9.48
2023-04-24T12:48:17.404Z,8.52
2023-04-24T12:50:47.056Z,9.75
2023-04-24T12:53:15.284Z,11.63
2023-04-24T12:55:42.699Z,11.32
2023-04-24T12:58:10.303Z,7.88
2023-04-24T13:00:38.376Z,14.20
2023-04-24T13:03:06.915Z,10.63
2023-04-24T13:05:34.400Z,15.77
2023-04-24T13:08:01.748Z,12.20
2023-04-24T13:10:30.042Z,11.00
2023-04-24T13:12:57.619Z,12.93
2023-04-24T13:15:25.693Z,13.63
2023-04-24T13:17:53.022Z,11.60
2023-04-24T13:20:20.547Z,15.90
2023-04-24T13:22:47.965Z,12.05
2023-04-24T13:25:17.887Z,13.77
2023-04-24T13:27:45.403Z,11.80
2023-04-24T13:30:13.482Z,10.60
2023-04-24T13:32:41.172Z,13.35
2023-04-24T13:35:09.100Z,15.38
2023-04-24T13:37:36.453Z,13.50
2023-04-24T13:40:07.108Z,15.20
2023-04-24T13:42:34.666Z,11.07
2023-04-24T13:45:05.950Z,12.30
2023-04-24T13:47:44.282Z,20.05
2023-04-24T13:50:14.040Z,17.38
2023-04-24T13:52:41.636Z,16.98
2023-04-24T13:55:09.268Z,14.88
2023-04-24T13:57:36.957Z,22.60
2023-04-24T14:00:05.337Z,17.63
2023-04-24T14:02:32.912Z,19.88
2023-04-24T14:05:00.639Z,18.85
2023-04-24T14:07:28.877Z,19.52
2023-04-24T14:09:56.399Z,21.50
2023-04-24T14:12:23.872Z,17.80
2023-04-24T14:14:51.237Z,19.20
2023-04-24T14:17:18.606Z,22.13
2023-04-24T14:19:46.096Z,22.70
2023-04-24T14:22:13.556Z,18.10
2023-04-24T14:24:41.065Z,19.05
2023-04-24T14:27:08.538Z,19.67
2023-04-24T14:29:36.140Z,16.10
2023-04-24T14:32:03.499Z,10.10
2023-04-24T14:34:31.041Z,8.48
2023-04-24T14:36:59.823Z,12.32
2023-04-24T14:39:27.441Z,11.88
2023-04-24T14:41:54.844Z,18.80
2023-04-24T14:44:22.716Z,12.20
2023-04-24T14:46:51.006Z,17.58
2023-04-24T14:49:18.512Z,22.13
2023-04-24T14:51:46.137Z,21.55
2023-04-24T14:54:14.041Z,17.08
2023-04-24T14:56:42.038Z,20.85
2023-04-24T14:59:09.589Z,20.52
2023-04-24T15:01:36.931Z,17.42
2023-04-24T15:04:04.466Z,16.52
2023-04-24T15:06:33.822Z,16.25
2023-04-24T15:09:01.377Z,17.33
2023-04-24T15:11:28.843Z,17.50
2023-04-24T15:13:56.864Z,17.90
2023-04-24T15:16:25.918Z,13.90
2023-04-24T15:18:53.456Z,19.27
2023-04-24T15:21:21.072Z,18.48
2023-04-24T15:23:48.857Z,17.05
2023-04-24T15:26:16.449Z,16.20
2023-04-24T15:28:43.878Z,16.02
2023-04-24T15:31:11.246Z,16.95
2023-04-24T15:33:38.766Z,13.80
2023-04-24T15:36:06.652Z,14.82
2023-04-24T15:38:34.421Z,14.85
2023-04-24T15:41:01.881Z,12.20
2023-04-24T15:43:32.084Z,13.88
2023-04-24T15:45:59.657Z,17.42
2023-04-24T15:48:28.279Z,14.82
2023-04-24T15:50:56.070Z,17.60
2023-04-24T15:53:24.044Z,14.20
2023-04-24T15:55:54.539Z,16.10
2023-04-24T15:58:22.310Z,19.00
2023-04-24T16:00:50.085Z,19.50
2023-04-24T16:03:17.696Z,16.33
2023-04-24T16:05:45.255Z,18.60
2023-04-24T16:08:15.305Z,19.38
2023-04-24T16:10:43.493Z,21.15
2023-04-24T16:13:10.861Z,20.90
2023-04-24T16:15:41.269Z,20.70
2023-04-24T16:18:08.952Z,23.67
2023-04-24T16:20:36.485Z,20.95
2023-04-24T16:23:07.582Z,19.55
2023-04-24T16:25:34.968Z,19.48
2023-04-24T16:28:02.531Z,22.20
2023-04-24T16:30:29.892Z,26.63
2023-04-24T16:32:57.314Z,24.13
2023-04-24T16:35:26.112Z,24.80
2023-04-24T16:37:53.478Z,22.40
2023-04-24T16:40:21.567Z,30.30
2023-04-24T16:42:49.478Z,26.05
2023-04-24T16:45:16.944Z,22.50
2023-04-24T16:47:44.528Z,22.10
2023-04-24T16:50:12.333Z,20.02
2023-04-24T16:52:40.085Z,19.50
2023-04-24T16:55:08.049Z,20.60
2023-04-24T16:57:35.506Z,16.63
2023-04-24T17:00:04.110Z,21.08
2023-04-24T17:02:31.810Z,16.88
2023-04-24T17:04:59.488Z,18.17
2023-04-24T17:07:27.030Z,20.80
2023-04-24T17:09:54.895Z,18.17
2023-04-24T17:12:22.577Z,15.13
2023-04-24T17:14:50.115Z,17.00
2023-04-24T17:17:20.600Z,18.13
2023-04-24T17:19:50.318Z,17.08
2023-04-24T17:22:18.410Z,17.25
2023-04-24T17:24:45.783Z,15.98
2023-04-24T17:27:15.283Z,13.70
2023-04-24T17:29:43.109Z,20.80
2023-04-24T17:32:10.775Z,20.50
2023-04-24T17:34:38.182Z,23.80
2023-04-24T17:37:05.618Z,19.48
2023-04-24T17:39:32.972Z,18.75
2023-04-24T17:42:01.519Z,24.15
2023-04-24T17:44:28.951Z,22.45
2023-04-24T17:46:56.522Z,18.05
2023-04-24T17:49:24.349Z,19.48
2023-04-24T17:51:51.770Z,18.42
2023-04-24T17:54:19.171Z,21.02
2023-04-24T17:56:46.596Z,21.42
2023-04-24T17:59:13.972Z,21.50
2023-04-24T18:01:41.359Z,20.27
2023-04-24T18:04:09.547Z,17.63
2023-04-24T18:06:37.284Z,23.13
2023-04-24T18:09:04.660Z,17.85
2023-04-24T18:11:32.233Z,21.63
2023-04-24T18:13:59.545Z,22.85
2023-04-24T18:16:26.991Z,19.27
2023-04-24T18:18:54.343Z,24.23
2023-04-24T18:21:21.722Z,24.70
2023-04-24T18:23:49.091Z,24.17
2023-04-24T18:26:17.227Z,23.17
2023-04-24T18:28:45.014Z,14.18
2023-04-24T18:31:12.528Z,24.67
2023-04-24T18:33:39.903Z,20.02
2023-04-24T18:36:07.323Z,21.55
2023-04-24T18:38:36.603Z,18.75
2023-04-24T18:41:04.313Z,19.40
2023-04-24T18:43:31.767Z,20.05
2023-04-24T18:45:59.146Z,28.00
2023-04-24T18:48:28.713Z,25.70
2023-04-24T18:50:56.162Z,21.52
2023-04-24T18:53:23.925Z,16.92
2023-04-24T18:55:51.582Z,18.20
2023-04-24T18:58:19.093Z,14.10
2023-04-24T19:00:46.570Z,20.20
2023-04-24T19:03:14.295Z,19.80
2023-04-24T19:05:42.002Z,18.30
2023-04-24T19:08:09.495Z,19.90
2023-04-24T19:10:36.998Z,19.05
2023-04-24T19:13:04.551Z,17.77
2023-04-24T19:15:33.485Z,18.15
2023-04-24T19:18:01.176Z,18.35
2023-04-24T19:20:28.621Z,11.88
2023-04-24T19:22:56.215Z,16.70
2023-04-24T19:25:23.706Z,22.15
2023-04-24T19:27:51.064Z,18.42
2023-04-24T19:30:18.492Z,15.82
2023-04-24T19:32:46.056Z,14.63
2023-04-24T19:35:13.448Z,18.10
2023-04-24T19:37:40.859Z,15.50
2023-04-24T19:40:08.700Z,17.10
2023-04-24T19:42:43.869Z,13.95
2023-04-24T19:45:12.841Z,10.30
2023-04-24T19:47:40.437Z,11.55
2023-04-24T19:50:09.307Z,11.05
2023-04-24T19:52:36.847Z,15.38
2023-04-24T19:55:04.725Z,12.27
2023-04-24T19:57:32.202Z,12.88
2023-04-24T19:59:59.663Z,16.45
2023-04-24T20:02:27.242Z,9.48
2023-04-24T20:04:54.866Z,9.48
2023-04-24T20:07:22.564Z,13.55
2023-04-24T20:09:50.005Z,12.52
2023-04-24T20:12:17.555Z,14.57
2023-04-24T20:14:44.881Z,10.30
2023-04-24T20:17:12.248Z,15.43
2023-04-24T20:19:41.010Z,17.50
2023-04-24T20:22:11.270Z,17.25
2023-04-24T20:24:40.405Z,20.90
2023-04-24T20:27:07.766Z,16.20
2023-04-24T20:29:35.554Z,11.40
2023-04-24T20:32:03.084Z,17.42
2023-04-24T20:34:30.567Z,13.88
2023-04-24T20:36:59.168Z,14.48
2023-04-24T20:39:26.737Z,17.55
2023-04-24T20:41:54.135Z,21.35
2023-04-24T20:44:22.099Z,20.92
2023-04-24T20:46:49.533Z,19.25
2023-04-24T20:49:16.936Z,20.58
2023-04-24T20:51:44.344Z,19.05
2023-04-24T20:54:11.664Z,16.90
2023-04-24T20:56:39.130Z,20.90
2023-04-24T20:59:06.574Z,25.15
2023-04-24T21:01:34.134Z,19.77
2023-04-24T21:04:01.584Z,18.50
2023-04-24T21:06:28.980Z,15.70
2023-04-24T21:08:56.732Z,18.88
2023-04-24T21:11:24.147Z,19.67
2023-04-24T21:13:51.691Z,23.02
2023-04-24T21:16:19.252Z,16.98
2023-04-24T21:18:46.655Z,16.85
2023-04-24T21:21:14.040Z,21.17
2023-04-24T21:23:41.492Z,15.70
2023-04-24T21:26:08.922Z,16.77
2023-04-24T21:28:37.312Z,16.52
2023-04-24T21:31:04.728Z,21.27
2023-04-24T21:33:32.087Z,19.75
2023-04-24T21:35:59.455Z,20.80
2023-04-24T21:38:26.799Z,23.08
2023-04-24T21:40:54.127Z,19.95
2023-04-24T21:43:27.964Z,19.83
2023-04-24T21:45:58.132Z,17.05
2023-04-24T21:48:25.527Z,24.73
2023-04-24T21:50:52.821Z,18.23
2023-04-24T21:53:20.240Z,19.27
2023-04-24T21:55:47.661Z,18.35
2023-04-24T21:58:15.098Z,21.35
2023-04-24T22:00:42.463Z,20.77
2023-04-24T22:03:09.864Z,18.73
2023-04-24T22:05:37.283Z,25.73
2023-04-24T22:08:05.496Z,22.25
2023-04-24T22:10:32.894Z,19.27
2023-04-24T22:13:00.301Z,22.85
2023-04-24T22:15:27.775Z,17.85
2023-04-24T22:17:55.282Z,20.80
2023-04-24T22:20:22.782Z,19.17
2023-04-24T22:22:50.266Z,18.02
2023-04-24T22:25:18.840Z,25.98
2023-04-24T22:27:46.140Z,25.25
2023-04-24T22:30:13.633Z,20.60
2023-04-24T22:32:41.099Z,24.52
2023-04-24T22:35:09.451Z,25.15
2023-04-24T22:37:37.221Z,23.50
2023-04-24T22:40:05.574Z,23.90
2023-04-24T22:42:33.096Z,20.58
2023-04-24T22:45:00.558Z,25.00
2023-04-24T22:47:27.947Z,17.27
2023-04-24T22:49:55.390Z,24.17
2023-04-24T22:52:22.743Z,23.85
2023-04-24T22:54:50.190Z,20.88
2023-04-24T22:57:17.484Z,23.73
2023-04-24T22:59:44.882Z,26.48
2023-04-24T23:02:12.407Z,26.48
2023-04-24T23:04:39.875Z,16.75
2023-04-24T23:07:07.257Z,23.00
2023-04-24T23:09:34.990Z,20.80
2023-04-24T23:12:02.474Z,25.38
2023-04-24T23:14:29.936Z,27.65
2023-04-24T23:16:57.500Z,23.65
2023-04-24T23:19:25.269Z,19.30
2023-04-24T23:21:52.620Z,25.20
2023-04-24T23:24:19.975Z,31.98
2023-04-24T23:26:47.325Z,27.90
2023-04-24T23:29:14.649Z,25.35
2023-04-24T23:31:42.006Z,25.38
2023-04-24T23:34:09.381Z,27.27
2023-04-24T23:36:36.765Z,25.40
2023-04-24T23:39:05.363Z,36.85
2023-04-24T23:41:32.814Z,24.60
2023-04-24T23:44:00.163Z,25.70
2023-04-24T23:46:27.614Z,25.60
2023-04-24T23:48:55.055Z,26.42
2023-04-24T23:51:22.437Z,28.25
2023-04-24T23:53:50.060Z,29.88
2023-04-24T23:56:17.600Z,25.15
2023-04-24T23:58:46.828Z,28.23
